sensor_id;sensor_type;location;lat;lon;timestamp;P1;durP1;ratioP1;P2;durP2;ratioP2
2618;SDS011;1319;52.346;13.096;2022-07-15T00:00:07;1.73;;;1.23;;
2618;SDS011;1319;52.346;13.096;2022-07-15T00:02:52;3.73;;;1.30;;
2618;SDS011;1319;52.346;13.096;2022-07-15T00:05:23;2.87;;;1.13;;
2618;SDS011;1319;52.346;13.096;2022-07-15T00:08:16;4.43;;;1.60;;
2618;SDS011;1319;52.346;13.096;2022-07-15T00:11:01;1.70;;;1.20;;
2618;SDS011;1319;52.346;13.096;2022-07-15T00:13:41;2.77;;;1.50;;
2618;SDS011;1319;52.346;13.096;2022-07-15T00:16:40;5.13;;;1.50;;
2618;SDS011;1319;52.346;13.096;2022-07-15T00:19:29;2.13;;;1.57;;
2618;SDS011;1319;52.346;13.096;2022-07-15T00:22:23;1.80;;;1.33;;
2618;SDS011;1319;52.346;13.096;2022-07-15T00:25:36;2.63;;;1.40;;
2618;SDS011;1319;52.346;13.096;2022-07-15T00:28:25;3.63;;;1.50;;
2618;SDS011;1319;52.346;13.096;2022-07-15T00:31:31;1.40;;;1.30;;
2618;SDS011;1319;52.346;13.096;2022-07-15T00:33:58;2.33;;;1.47;;
2618;SDS011;1319;52.346;13.096;2022-07-15T00:39:31;2.30;;;1.20;;
2618;SDS011;1319;52.346;13.096;2022-07-15T00:42:27;3.03;;;1.30;;
2618;SDS011;1319;52.346;13.096;2022-07-15T00:45:29;1.80;;;1.50;;
2618;SDS011;1319;52.346;13.096;2022-07-15T00:48:40;3.57;;;2.00;;
2618;SDS011;1319;52.346;13.096;2022-07-15T00:51:19;4.20;;;1.60;;
2618;SDS011;1319;52.346;13.096;2022-07-15T00:53:58;2.70;;;1.50;;
2618;SDS011;1319;52.346;13.096;2022-07-15T00:56:52;3.67;;;1.60;;
2618;SDS011;1319;52.346;13.096;2022-07-15T01:05:00;5.80;;;1.73;;
2618;SDS011;1319;52.346;13.096;2022-07-15T01:07:42;2.50;;;1.50;;
2618;SDS011;1319;52.346;13.096;2022-07-15T01:10:56;8.17;;;1.77;;
2618;SDS011;1319;52.346;13.096;2022-07-15T01:14:13;2.87;;;1.70;;
2618;SDS011;1319;52.346;13.096;2022-07-15T01:17:08;2.10;;;1.57;;
2618;SDS011;1319;52.346;13.096;2022-07-15T01:19:39;3.03;;;1.50;;
2618;SDS011;1319;52.346;13.096;2022-07-15T01:22:05;1.63;;;1.47;;
2618;SDS011;1319;52.346;13.096;2022-07-15T01:24:41;4.30;;;1.50;;
2618;SDS011;1319;52.346;13.096;2022-07-15T01:27:15;5.17;;;1.50;;
2618;SDS011;1319;52.346;13.096;2022-07-15T01:30:15;4.60;;;1.60;;
2618;SDS011;1319;52.346;13.096;2022-07-15T01:32:44;5.10;;;1.80;;
2618;SDS011;1319;52.346;13.096;2022-07-15T01:35:13;8.53;;;1.70;;
2618;SDS011;1319;52.346;13.096;2022-07-15T01:38:03;3.30;;;1.53;;
2618;SDS011;1319;52.346;13.096;2022-07-15T01:40:34;3.73;;;1.80;;
2618;SDS011;1319;52.346;13.096;2022-07-15T01:43:02;3.27;;;1.57;;
2618;SDS011;1319;52.346;13.096;2022-07-15T01:45:29;5.17;;;1.80;;
2618;SDS011;1319;52.346;13.096;2022-07-15T01:48:14;4.30;;;1.63;;
2618;SDS011;1319;52.346;13.096;2022-07-15T01:51:00;3.30;;;1.60;;
2618;SDS011;1319;52.346;13.096;2022-07-15T01:53:34;8.60;;;1.80;;
2618;SDS011;1319;52.346;13.096;2022-07-15T01:59:22;4.43;;;1.73;;
2618;SDS011;1319;52.346;13.096;2022-07-15T02:02:14;5.33;;;1.90;;
2618;SDS011;1319;52.346;13.096;2022-07-15T02:04:44;6.70;;;1.73;;
2618;SDS011;1319;52.346;13.096;2022-07-15T02:07:11;5.70;;;1.80;;
2618;SDS011;1319;52.346;13.096;2022-07-15T02:10:26;4.37;;;1.60;;
2618;SDS011;1319;52.346;13.096;2022-07-15T02:13:14;8.73;;;1.73;;
2618;SDS011;1319;52.346;13.096;2022-07-15T02:15:52;5.30;;;1.60;;
2618;SDS011;1319;52.346;13.096;2022-07-15T02:18:30;4.10;;;1.53;;
2618;SDS011;1319;52.346;13.096;2022-07-15T02:21:04;3.00;;;1.70;;
2618;SDS011;1319;52.346;13.096;2022-07-15T02:23:54;5.33;;;1.83;;
2618;SDS011;1319;52.346;13.096;2022-07-15T02:26:32;8.37;;;1.90;;
2618;SDS011;1319;52.346;13.096;2022-07-15T02:29:01;4.20;;;1.93;;
2618;SDS011;1319;52.346;13.096;2022-07-15T02:31:54;3.60;;;1.90;;
2618;SDS011;1319;52.346;13.096;2022-07-15T02:34:29;5.40;;;1.90;;
2618;SDS011;1319;52.346;13.096;2022-07-15T02:37:26;8.90;;;2.27;;
2618;SDS011;1319;52.346;13.096;2022-07-15T02:40:16;7.57;;;1.97;;
2618;SDS011;1319;52.346;13.096;2022-07-15T02:42:51;10.77;;;2.10;;
2618;SDS011;1319;52.346;13.096;2022-07-15T02:45:26;4.10;;;1.70;;
2618;SDS011;1319;52.346;13.096;2022-07-15T02:47:56;3.30;;;1.80;;
2618;SDS011;1319;52.346;13.096;2022-07-15T02:50:25;6.87;;;1.90;;
2618;SDS011;1319;52.346;13.096;2022-07-15T02:52:58;6.63;;;1.97;;
2618;SDS011;1319;52.346;13.096;2022-07-15T02:55:36;6.63;;;2.40;;
2618;SDS011;1319;52.346;13.096;2022-07-15T02:58:14;6.20;;;1.90;;
2618;SDS011;1319;52.346;13.096;2022-07-15T03:00:39;4.67;;;1.90;;
2618;SDS011;1319;52.346;13.096;2022-07-15T03:03:13;6.10;;;2.10;;
2618;SDS011;1319;52.346;13.096;2022-07-15T03:06:18;9.53;;;2.30;;
2618;SDS011;1319;52.346;13.096;2022-07-15T03:09:04;6.40;;;1.83;;
2618;SDS011;1319;52.346;13.096;2022-07-15T03:11:34;4.93;;;1.80;;
2618;SDS011;1319;52.346;13.096;2022-07-15T03:14:13;6.30;;;2.40;;
2618;SDS011;1319;52.346;13.096;2022-07-15T03:17:05;4.30;;;1.60;;
2618;SDS011;1319;52.346;13.096;2022-07-15T03:19:38;5.03;;;2.07;;
2618;SDS011;1319;52.346;13.096;2022-07-15T03:31:20;5.40;;;1.73;;
2618;SDS011;1319;52.346;13.096;2022-07-15T03:33:53;7.80;;;2.20;;
2618;SDS011;1319;52.346;13.096;2022-07-15T03:36:56;5.17;;;2.03;;
2618;SDS011;1319;52.346;13.096;2022-07-15T03:40:00;10.17;;;2.03;;
2618;SDS011;1319;52.346;13.096;2022-07-15T03:45:57;8.80;;;2.00;;
2618;SDS011;1319;52.346;13.096;2022-07-15T03:49:01;6.07;;;1.83;;
2618;SDS011;1319;52.346;13.096;2022-07-15T03:51:53;9.10;;;2.20;;
2618;SDS011;1319;52.346;13.096;2022-07-15T03:55:03;8.93;;;2.50;;
2618;SDS011;1319;52.346;13.096;2022-07-15T03:58:11;5.70;;;2.07;;
2618;SDS011;1319;52.346;13.096;2022-07-15T04:09:48;5.73;;;2.60;;
2618;SDS011;1319;52.346;13.096;2022-07-15T04:12:15;13.80;;;2.50;;
2618;SDS011;1319;52.346;13.096;2022-07-15T04:14:49;9.10;;;2.13;;
2618;SDS011;1319;52.346;13.096;2022-07-15T04:17:59;7.67;;;2.33;;
2618;SDS011;1319;52.346;13.096;2022-07-15T04:20:56;9.67;;;2.43;;
2618;SDS011;1319;52.346;13.096;2022-07-15T04:23:47;5.83;;;1.83;;
2618;SDS011;1319;52.346;13.096;2022-07-15T04:26:27;5.47;;;2.10;;
2618;SDS011;1319;52.346;13.096;2022-07-15T04:29:19;9.83;;;2.10;;
2618;SDS011;1319;52.346;13.096;2022-07-15T04:32:00;12.57;;;2.87;;
2618;SDS011;1319;52.346;13.096;2022-07-15T04:35:04;8.07;;;2.07;;
2618;SDS011;1319;52.346;13.096;2022-07-15T04:38:30;5.90;;;2.00;;
2618;SDS011;1319;52.346;13.096;2022-07-15T04:41:24;6.67;;;2.40;;
2618;SDS011;1319;52.346;13.096;2022-07-15T04:44:17;11.87;;;2.07;;
2618;SDS011;1319;52.346;13.096;2022-07-15T04:47:06;8.70;;;2.07;;
2618;SDS011;1319;52.346;13.096;2022-07-15T04:50:11;9.77;;;1.93;;
2618;SDS011;1319;52.346;13.096;2022-07-15T04:52:56;6.07;;;1.77;;
2618;SDS011;1319;52.346;13.096;2022-07-15T04:55:26;7.63;;;1.80;;
2618;SDS011;1319;52.346;13.096;2022-07-15T04:58:38;7.63;;;1.90;;
2618;SDS011;1319;52.346;13.096;2022-07-15T05:01:24;5.47;;;2.20;;
2618;SDS011;1319;52.346;13.096;2022-07-15T05:07:02;6.00;;;1.93;;
2618;SDS011;1319;52.346;13.096;2022-07-15T05:10:21;8.97;;;2.37;;
2618;SDS011;1319;52.346;13.096;2022-07-15T05:13:39;4.53;;;1.83;;
2618;SDS011;1319;52.346;13.096;2022-07-15T05:16:17;9.07;;;1.93;;
2618;SDS011;1319;52.346;13.096;2022-07-15T05:19:08;13.57;;;2.13;;
2618;SDS011;1319;52.346;13.096;2022-07-15T05:21:56;5.20;;;1.73;;
2618;SDS011;1319;52.346;13.096;2022-07-15T05:24:43;5.87;;;2.20;;
2618;SDS011;1319;52.346;13.096;2022-07-15T05:27:14;6.40;;;1.90;;
2618;SDS011;1319;52.346;13.096;2022-07-15T05:30:01;6.80;;;1.73;;
2618;SDS011;1319;52.346;13.096;2022-07-15T05:32:52;7.57;;;1.70;;
2618;SDS011;1319;52.346;13.096;2022-07-15T05:38:35;9.50;;;2.37;;
2618;SDS011;1319;52.346;13.096;2022-07-15T05:41:49;6.23;;;1.70;;
2618;SDS011;1319;52.346;13.096;2022-07-15T05:44:56;5.83;;;1.87;;
2618;SDS011;1319;52.346;13.096;2022-07-15T05:47:48;3.97;;;1.70;;
2618;SDS011;1319;52.346;13.096;2022-07-15T05:50:22;4.63;;;1.20;;
2618;SDS011;1319;52.346;13.096;2022-07-15T05:52:57;6.83;;;2.03;;
2618;SDS011;1319;52.346;13.096;2022-07-15T05:56:08;7.67;;;1.80;;
2618;SDS011;1319;52.346;13.096;2022-07-15T05:58:58;9.80;;;2.00;;
2618;SDS011;1319;52.346;13.096;2022-07-15T06:01:26;6.73;;;1.60;;
2618;SDS011;1319;52.346;13.096;2022-07-15T06:04:10;4.87;;;1.50;;
2618;SDS011;1319;52.346;13.096;2022-07-15T06:06:35;6.20;;;1.80;;
2618;SDS011;1319;52.346;13.096;2022-07-15T06:09:13;6.50;;;1.73;;
2618;SDS011;1319;52.346;13.096;2022-07-15T06:12:24;3.07;;;1.57;;
2618;SDS011;1319;52.346;13.096;2022-07-15T06:14:58;2.30;;;1.20;;
2618;SDS011;1319;52.346;13.096;2022-07-15T06:17:52;3.33;;;1.40;;
2618;SDS011;1319;52.346;13.096;2022-07-15T06:20:45;8.60;;;1.70;;
2618;SDS011;1319;52.346;13.096;2022-07-15T06:23:54;6.17;;;1.63;;
2618;SDS011;1319;52.346;13.096;2022-07-15T06:27:11;8.20;;;1.80;;
2618;SDS011;1319;52.346;13.096;2022-07-15T06:33:07;8.00;;;1.60;;
2618;SDS011;1319;52.346;13.096;2022-07-15T06:36:07;8.27;;;1.97;;
2618;SDS011;1319;52.346;13.096;2022-07-15T06:38:58;4.97;;;1.50;;
2618;SDS011;1319;52.346;13.096;2022-07-15T06:41:52;5.30;;;1.50;;
2618;SDS011;1319;52.346;13.096;2022-07-15T06:45:01;3.50;;;1.20;;
2618;SDS011;1319;52.346;13.096;2022-07-15T06:47:40;10.93;;;1.57;;
2618;SDS011;1319;52.346;13.096;2022-07-15T06:50:33;6.73;;;1.70;;
2618;SDS011;1319;52.346;13.096;2022-07-15T06:53:18;3.87;;;1.20;;
2618;SDS011;1319;52.346;13.096;2022-07-15T06:55:54;6.27;;;1.37;;
2618;SDS011;1319;52.346;13.096;2022-07-15T06:59:27;7.73;;;1.73;;
2618;SDS011;1319;52.346;13.096;2022-07-15T07:05:43;4.73;;;1.40;;
2618;SDS011;1319;52.346;13.096;2022-07-15T07:11:46;6.97;;;1.10;;
2618;SDS011;1319;52.346;13.096;2022-07-15T07:14:11;4.47;;;1.30;;
2618;SDS011;1319;52.346;13.096;2022-07-15T07:16:36;3.23;;;1.30;;
2618;SDS011;1319;52.346;13.096;2022-07-15T07:19:02;4.37;;;1.40;;
2618;SDS011;1319;52.346;13.096;2022-07-15T07:21:27;3.67;;;1.20;;
2618;SDS011;1319;52.346;13.096;2022-07-15T07:23:52;5.87;;;1.27;;
2618;SDS011;1319;52.346;13.096;2022-07-15T07:26:18;4.97;;;1.37;;
2618;SDS011;1319;52.346;13.096;2022-07-15T07:28:43;6.03;;;1.40;;
2618;SDS011;1319;52.346;13.096;2022-07-15T07:31:09;3.50;;;1.27;;
2618;SDS011;1319;52.346;13.096;2022-07-15T07:33:35;3.20;;;1.37;;
2618;SDS011;1319;52.346;13.096;2022-07-15T07:36:00;14.00;;;1.97;;
2618;SDS011;1319;52.346;13.096;2022-07-15T07:38:26;3.70;;;1.20;;
2618;SDS011;1319;52.346;13.096;2022-07-15T07:40:51;6.33;;;1.07;;
2618;SDS011;1319;52.346;13.096;2022-07-15T07:43:17;2.43;;;1.00;;
2618;SDS011;1319;52.346;13.096;2022-07-15T07:45:43;4.70;;;1.20;;
2618;SDS011;1319;52.346;13.096;2022-07-15T07:48:09;2.73;;;1.10;;
2618;SDS011;1319;52.346;13.096;2022-07-15T07:50:34;2.23;;;1.13;;
2618;SDS011;1319;52.346;13.096;2022-07-15T07:52:59;3.70;;;1.13;;
2618;SDS011;1319;52.346;13.096;2022-07-15T07:55:25;6.53;;;1.40;;
2618;SDS011;1319;52.346;13.096;2022-07-15T07:57:51;6.33;;;1.10;;
2618;SDS011;1319;52.346;13.096;2022-07-15T08:00:17;3.17;;;1.07;;
2618;SDS011;1319;52.346;13.096;2022-07-15T08:02:42;7.87;;;1.43;;
2618;SDS011;1319;52.346;13.096;2022-07-15T08:05:08;3.23;;;1.10;;
2618;SDS011;1319;52.346;13.096;2022-07-15T08:07:33;7.20;;;1.03;;
2618;SDS011;1319;52.346;13.096;2022-07-15T08:09:59;3.70;;;1.00;;
2618;SDS011;1319;52.346;13.096;2022-07-15T08:12:25;2.30;;;1.00;;
2618;SDS011;1319;52.346;13.096;2022-07-15T08:14:50;3.13;;;0.80;;
2618;SDS011;1319;52.346;13.096;2022-07-15T08:17:16;5.67;;;1.00;;
2618;SDS011;1319;52.346;13.096;2022-07-15T08:19:41;5.13;;;1.10;;
2618;SDS011;1319;52.346;13.096;2022-07-15T08:22:07;3.93;;;1.20;;
2618;SDS011;1319;52.346;13.096;2022-07-15T08:24:32;4.17;;;1.00;;
2618;SDS011;1319;52.346;13.096;2022-07-15T08:26:57;2.77;;;1.10;;
2618;SDS011;1319;52.346;13.096;2022-07-15T08:29:22;6.57;;;0.90;;
2618;SDS011;1319;52.346;13.096;2022-07-15T08:31:47;2.90;;;0.90;;
2618;SDS011;1319;52.346;13.096;2022-07-15T08:34:13;3.00;;;0.80;;
2618;SDS011;1319;52.346;13.096;2022-07-15T08:36:38;1.87;;;0.87;;
2618;SDS011;1319;52.346;13.096;2022-07-15T08:39:03;1.03;;;0.90;;
2618;SDS011;1319;52.346;13.096;2022-07-15T08:41:28;2.70;;;0.97;;
2618;SDS011;1319;52.346;13.096;2022-07-15T08:46:58;5.70;;;0.97;;
2618;SDS011;1319;52.346;13.096;2022-07-15T08:49:25;3.23;;;1.17;;
2618;SDS011;1319;52.346;13.096;2022-07-15T08:51:54;3.20;;;0.93;;
2618;SDS011;1319;52.346;13.096;2022-07-15T08:54:21;7.93;;;1.37;;
2618;SDS011;1319;52.346;13.096;2022-07-15T08:56:48;4.80;;;1.30;;
2618;SDS011;1319;52.346;13.096;2022-07-15T08:59:13;3.00;;;1.60;;
2618;SDS011;1319;52.346;13.096;2022-07-15T09:01:42;3.80;;;1.10;;
2618;SDS011;1319;52.346;13.096;2022-07-15T09:04:08;6.67;;;1.20;;
2618;SDS011;1319;52.346;13.096;2022-07-15T09:06:40;3.07;;;0.77;;
2618;SDS011;1319;52.346;13.096;2022-07-15T09:09:21;4.37;;;0.93;;
2618;SDS011;1319;52.346;13.096;2022-07-15T09:11:53;2.00;;;0.83;;
2618;SDS011;1319;52.346;13.096;2022-07-15T09:14:19;3.63;;;1.00;;
2618;SDS011;1319;52.346;13.096;2022-07-15T09:16:44;2.97;;;1.10;;
2618;SDS011;1319;52.346;13.096;2022-07-15T09:19:10;2.03;;;0.90;;
2618;SDS011;1319;52.346;13.096;2022-07-15T09:21:35;3.97;;;1.10;;
2618;SDS011;1319;52.346;13.096;2022-07-15T09:24:14;2.30;;;0.90;;
2618;SDS011;1319;52.346;13.096;2022-07-15T09:26:40;2.63;;;1.00;;
2618;SDS011;1319;52.346;13.096;2022-07-15T09:29:05;3.53;;;0.90;;
2618;SDS011;1319;52.346;13.096;2022-07-15T09:31:55;2.80;;;1.10;;
2618;SDS011;1319;52.346;13.096;2022-07-15T09:34:41;4.40;;;1.10;;
2618;SDS011;1319;52.346;13.096;2022-07-15T09:37:23;4.37;;;1.00;;
2618;SDS011;1319;52.346;13.096;2022-07-15T09:39:55;3.97;;;0.90;;
2618;SDS011;1319;52.346;13.096;2022-07-15T09:42:20;2.47;;;0.83;;
2618;SDS011;1319;52.346;13.096;2022-07-15T09:44:46;3.83;;;0.90;;
2618;SDS011;1319;52.346;13.096;2022-07-15T09:47:15;3.97;;;1.20;;
2618;SDS011;1319;52.346;13.096;2022-07-15T09:49:41;3.20;;;1.10;;
2618;SDS011;1319;52.346;13.096;2022-07-15T09:54:36;3.03;;;0.90;;
2618;SDS011;1319;52.346;13.096;2022-07-15T09:57:03;4.47;;;1.23;;
2618;SDS011;1319;52.346;13.096;2022-07-15T09:59:29;5.17;;;1.27;;
2618;SDS011;1319;52.346;13.096;2022-07-15T10:01:54;2.50;;;0.90;;
2618;SDS011;1319;52.346;13.096;2022-07-15T10:04:20;3.80;;;1.20;;
2618;SDS011;1319;52.346;13.096;2022-07-15T10:06:49;6.90;;;1.00;;
2618;SDS011;1319;52.346;13.096;2022-07-15T10:09:15;8.30;;;1.20;;
2618;SDS011;1319;52.346;13.096;2022-07-15T10:11:47;2.90;;;0.80;;
2618;SDS011;1319;52.346;13.096;2022-07-15T10:19:37;2.10;;;1.00;;
2618;SDS011;1319;52.346;13.096;2022-07-15T10:29:57;3.73;;;1.00;;
2618;SDS011;1319;52.346;13.096;2022-07-15T10:32:27;6.67;;;1.20;;
2618;SDS011;1319;52.346;13.096;2022-07-15T10:34:52;2.10;;;0.70;;
2618;SDS011;1319;52.346;13.096;2022-07-15T10:37:17;4.50;;;1.10;;
2618;SDS011;1319;52.346;13.096;2022-07-15T10:42:11;3.20;;;0.93;;
2618;SDS011;1319;52.346;13.096;2022-07-15T10:44:47;3.23;;;0.80;;
2618;SDS011;1319;52.346;13.096;2022-07-15T10:49:47;2.03;;;1.07;;
2618;SDS011;1319;52.346;13.096;2022-07-15T10:52:14;4.53;;;1.10;;
2618;SDS011;1319;52.346;13.096;2022-07-15T10:54:41;2.27;;;1.20;;
2618;SDS011;1319;52.346;13.096;2022-07-15T10:57:07;3.17;;;1.03;;
2618;SDS011;1319;52.346;13.096;2022-07-15T10:59:39;4.87;;;1.00;;
2618;SDS011;1319;52.346;13.096;2022-07-15T11:02:12;1.73;;;0.90;;
2618;SDS011;1319;52.346;13.096;2022-07-15T11:04:38;3.03;;;1.27;;
2618;SDS011;1319;52.346;13.096;2022-07-15T11:15:01;1.53;;;1.10;;
2618;SDS011;1319;52.346;13.096;2022-07-15T11:19:54;1.40;;;0.90;;
2618;SDS011;1319;52.346;13.096;2022-07-15T11:22:20;4.17;;;1.00;;
2618;SDS011;1319;52.346;13.096;2022-07-15T11:24:46;3.80;;;1.00;;
2618;SDS011;1319;52.346;13.096;2022-07-15T11:27:12;1.43;;;0.70;;
2618;SDS011;1319;52.346;13.096;2022-07-15T11:29:45;1.93;;;0.80;;
2618;SDS011;1319;52.346;13.096;2022-07-15T11:32:11;1.57;;;0.87;;
2618;SDS011;1319;52.346;13.096;2022-07-15T11:34:42;4.87;;;0.90;;
2618;SDS011;1319;52.346;13.096;2022-07-15T11:37:08;4.60;;;1.07;;
2618;SDS011;1319;52.346;13.096;2022-07-15T11:39:35;4.00;;;1.00;;
2618;SDS011;1319;52.346;13.096;2022-07-15T11:42:01;3.73;;;0.93;;
2618;SDS011;1319;52.346;13.096;2022-07-15T11:44:48;2.43;;;0.90;;
2618;SDS011;1319;52.346;13.096;2022-07-15T11:47:14;1.07;;;0.80;;
2618;SDS011;1319;52.346;13.096;2022-07-15T11:49:40;3.70;;;1.07;;
2618;SDS011;1319;52.346;13.096;2022-07-15T11:52:07;3.33;;;0.87;;
2618;SDS011;1319;52.346;13.096;2022-07-15T11:54:39;2.00;;;0.87;;
2618;SDS011;1319;52.346;13.096;2022-07-15T11:57:06;2.53;;;0.90;;
2618;SDS011;1319;52.346;13.096;2022-07-15T11:59:32;2.87;;;1.03;;
2618;SDS011;1319;52.346;13.096;2022-07-15T12:04:26;1.83;;;1.20;;
2618;SDS011;1319;52.346;13.096;2022-07-15T12:06:51;3.13;;;1.00;;
2618;SDS011;1319;52.346;13.096;2022-07-15T12:09:17;2.67;;;0.90;;
2618;SDS011;1319;52.346;13.096;2022-07-15T12:11:42;5.00;;;1.20;;
2618;SDS011;1319;52.346;13.096;2022-07-15T12:14:08;5.27;;;1.50;;
2618;SDS011;1319;52.346;13.096;2022-07-15T12:16:36;2.23;;;0.90;;
2618;SDS011;1319;52.346;13.096;2022-07-15T12:19:02;2.23;;;1.10;;
2618;SDS011;1319;52.346;13.096;2022-07-15T12:21:27;2.37;;;1.10;;
2618;SDS011;1319;52.346;13.096;2022-07-15T12:23:57;3.17;;;1.33;;
2618;SDS011;1319;52.346;13.096;2022-07-15T12:26:22;1.60;;;0.93;;
2618;SDS011;1319;52.346;13.096;2022-07-15T12:28:52;2.15;;;1.17;;
2618;SDS011;1319;52.346;13.096;2022-07-15T12:31:23;3.08;;;1.25;;
2618;SDS011;1319;52.346;13.096;2022-07-15T12:33:50;3.28;;;0.90;;
2618;SDS011;1319;52.346;13.096;2022-07-15T12:36:16;4.20;;;1.10;;
2618;SDS011;1319;52.346;13.096;2022-07-15T12:38:42;1.88;;;1.02;;
2618;SDS011;1319;52.346;13.096;2022-07-15T12:41:09;0.77;;;0.77;;
2618;SDS011;1319;52.346;13.096;2022-07-15T12:43:56;1.98;;;1.13;;
2618;SDS011;1319;52.346;13.096;2022-07-15T12:46:20;5.53;;;0.90;;
2618;SDS011;1319;52.346;13.096;2022-07-15T12:48:47;3.33;;;1.02;;
2618;SDS011;1319;52.346;13.096;2022-07-15T12:51:16;3.20;;;0.95;;
2618;SDS011;1319;52.346;13.096;2022-07-15T12:53:41;2.22;;;0.90;;
2618;SDS011;1319;52.346;13.096;2022-07-15T12:56:07;4.00;;;0.88;;
2618;SDS011;1319;52.346;13.096;2022-07-15T12:58:32;2.85;;;1.23;;
2618;SDS011;1319;52.346;13.096;2022-07-15T13:01:05;3.57;;;1.10;;
2618;SDS011;1319;52.346;13.096;2022-07-15T13:03:30;4.83;;;1.10;;
2618;SDS011;1319;52.346;13.096;2022-07-15T13:05:55;2.13;;;1.00;;
2618;SDS011;1319;52.346;13.096;2022-07-15T13:08:21;3.47;;;1.10;;
2618;SDS011;1319;52.346;13.096;2022-07-15T13:10:48;3.17;;;1.00;;
2618;SDS011;1319;52.346;13.096;2022-07-15T13:13:14;3.13;;;1.38;;
2618;SDS011;1319;52.346;13.096;2022-07-15T13:15:40;1.52;;;1.10;;
2618;SDS011;1319;52.346;13.096;2022-07-15T13:18:06;5.40;;;1.20;;
2618;SDS011;1319;52.346;13.096;2022-07-15T13:20:31;3.35;;;1.05;;
2618;SDS011;1319;52.346;13.096;2022-07-15T13:22:57;5.72;;;1.30;;
2618;SDS011;1319;52.346;13.096;2022-07-15T13:25:22;1.77;;;0.90;;
2618;SDS011;1319;52.346;13.096;2022-07-15T13:27:48;1.80;;;0.93;;
2618;SDS011;1319;52.346;13.096;2022-07-15T13:30:13;2.63;;;1.15;;
2618;SDS011;1319;52.346;13.096;2022-07-15T13:32:39;4.25;;;1.33;;
2618;SDS011;1319;52.346;13.096;2022-07-15T13:35:05;3.78;;;1.02;;
2618;SDS011;1319;52.346;13.096;2022-07-15T13:37:30;3.08;;;1.08;;
2618;SDS011;1319;52.346;13.096;2022-07-15T13:39:56;2.75;;;1.10;;
2618;SDS011;1319;52.346;13.096;2022-07-15T13:42:21;3.08;;;1.20;;
2618;SDS011;1319;52.346;13.096;2022-07-15T13:44:49;2.70;;;1.02;;
2618;SDS011;1319;52.346;13.096;2022-07-15T13:47:14;2.20;;;1.10;;
2618;SDS011;1319;52.346;13.096;2022-07-15T13:49:40;1.88;;;1.17;;
2618;SDS011;1319;52.346;13.096;2022-07-15T13:52:24;3.28;;;1.10;;
2618;SDS011;1319;52.346;13.096;2022-07-15T13:54:49;4.10;;;1.17;;
2618;SDS011;1319;52.346;13.096;2022-07-15T13:57:14;3.75;;;1.10;;
2618;SDS011;1319;52.346;13.096;2022-07-15T13:59:40;2.85;;;1.10;;
2618;SDS011;1319;52.346;13.096;2022-07-15T14:02:05;4.10;;;1.40;;
2618;SDS011;1319;52.346;13.096;2022-07-15T14:04:31;2.33;;;0.95;;
2618;SDS011;1319;52.346;13.096;2022-07-15T14:06:56;3.63;;;0.98;;
2618;SDS011;1319;52.346;13.096;2022-07-15T14:09:22;1.10;;;1.00;;
2618;SDS011;1319;52.346;13.096;2022-07-15T14:11:47;3.10;;;1.30;;
2618;SDS011;1319;52.346;13.096;2022-07-15T14:14:12;2.08;;;0.85;;
2618;SDS011;1319;52.346;13.096;2022-07-15T14:16:37;2.53;;;1.20;;
2618;SDS011;1319;52.346;13.096;2022-07-15T14:19:03;3.92;;;1.25;;
2618;SDS011;1319;52.346;13.096;2022-07-15T14:21:28;2.72;;;1.20;;
2618;SDS011;1319;52.346;13.096;2022-07-15T14:23:53;2.55;;;0.95;;
2618;SDS011;1319;52.346;13.096;2022-07-15T14:26:18;2.58;;;1.00;;
2618;SDS011;1319;52.346;13.096;2022-07-15T14:28:44;4.00;;;1.08;;
2618;SDS011;1319;52.346;13.096;2022-07-15T14:31:09;2.50;;;1.30;;
2618;SDS011;1319;52.346;13.096;2022-07-15T14:33:37;2.15;;;1.33;;
2618;SDS011;1319;52.346;13.096;2022-07-15T14:36:03;3.58;;;0.80;;
2618;SDS011;1319;52.346;13.096;2022-07-15T14:38:28;2.90;;;1.10;;
2618;SDS011;1319;52.346;13.096;2022-07-15T14:40:53;4.28;;;1.23;;
2618;SDS011;1319;52.346;13.096;2022-07-15T14:43:19;4.22;;;1.00;;
2618;SDS011;1319;52.346;13.096;2022-07-15T14:45:47;3.30;;;1.10;;
2618;SDS011;1319;52.346;13.096;2022-07-15T14:48:20;1.45;;;1.00;;
2618;SDS011;1319;52.346;13.096;2022-07-15T14:50:45;2.58;;;1.20;;
2618;SDS011;1319;52.346;13.096;2022-07-15T14:53:10;2.17;;;1.13;;
2618;SDS011;1319;52.346;13.096;2022-07-15T14:55:36;4.03;;;1.10;;
2618;SDS011;1319;52.346;13.096;2022-07-15T14:58:01;1.30;;;1.20;;
2618;SDS011;1319;52.346;13.096;2022-07-15T15:00:30;2.95;;;1.10;;
2618;SDS011;1319;52.346;13.096;2022-07-15T15:02:55;2.40;;;1.10;;
2618;SDS011;1319;52.346;13.096;2022-07-15T15:05:21;1.00;;;0.90;;
2618;SDS011;1319;52.346;13.096;2022-07-15T15:07:46;1.98;;;0.88;;
2618;SDS011;1319;52.346;13.096;2022-07-15T15:10:12;1.73;;;1.10;;
2618;SDS011;1319;52.346;13.096;2022-07-15T15:12:38;1.88;;;0.93;;
2618;SDS011;1319;52.346;13.096;2022-07-15T15:15:04;1.52;;;0.88;;
2618;SDS011;1319;52.346;13.096;2022-07-15T15:17:29;1.98;;;1.00;;
2618;SDS011;1319;52.346;13.096;2022-07-15T15:19:55;3.70;;;1.13;;
2618;SDS011;1319;52.346;13.096;2022-07-15T15:22:20;3.72;;;1.05;;
2618;SDS011;1319;52.346;13.096;2022-07-15T15:24:46;2.38;;;1.00;;
2618;SDS011;1319;52.346;13.096;2022-07-15T15:27:11;3.10;;;1.05;;
2618;SDS011;1319;52.346;13.096;2022-07-15T15:29:37;0.85;;;0.85;;
2618;SDS011;1319;52.346;13.096;2022-07-15T15:32:03;2.90;;;1.10;;
2618;SDS011;1319;52.346;13.096;2022-07-15T15:34:30;1.45;;;1.10;;
2618;SDS011;1319;52.346;13.096;2022-07-15T15:36:56;2.55;;;1.15;;
2618;SDS011;1319;52.346;13.096;2022-07-15T15:39:21;3.63;;;1.13;;
2618;SDS011;1319;52.346;13.096;2022-07-15T15:41:47;2.28;;;0.95;;
2618;SDS011;1319;52.346;13.096;2022-07-15T15:44:12;2.65;;;1.10;;
2618;SDS011;1319;52.346;13.096;2022-07-15T15:46:38;3.08;;;1.02;;
2618;SDS011;1319;52.346;13.096;2022-07-15T15:49:03;1.33;;;1.15;;
2618;SDS011;1319;52.346;13.096;2022-07-15T15:51:29;2.55;;;1.13;;
2618;SDS011;1319;52.346;13.096;2022-07-15T15:53:54;0.90;;;0.90;;
2618;SDS011;1319;52.346;13.096;2022-07-15T15:56:19;1.45;;;1.10;;
2618;SDS011;1319;52.346;13.096;2022-07-15T15:58:45;2.08;;;1.20;;
2618;SDS011;1319;52.346;13.096;2022-07-15T16:01:10;1.17;;;1.00;;
2618;SDS011;1319;52.346;13.096;2022-07-15T16:03:35;2.45;;;1.10;;
2618;SDS011;1319;52.346;13.096;2022-07-15T16:06:01;1.38;;;1.15;;
2618;SDS011;1319;52.346;13.096;2022-07-15T16:08:26;1.98;;;0.90;;
2618;SDS011;1319;52.346;13.096;2022-07-15T16:10:51;3.25;;;1.10;;
2618;SDS011;1319;52.346;13.096;2022-07-15T16:13:17;0.82;;;0.82;;
2618;SDS011;1319;52.346;13.096;2022-07-15T16:15:43;2.20;;;0.93;;
2618;SDS011;1319;52.346;13.096;2022-07-15T16:18:08;0.85;;;0.85;;
2618;SDS011;1319;52.346;13.096;2022-07-15T16:20:34;1.50;;;1.10;;
2618;SDS011;1319;52.346;13.096;2022-07-15T16:22:59;4.90;;;1.10;;
2618;SDS011;1319;52.346;13.096;2022-07-15T16:25:29;2.47;;;1.20;;
2618;SDS011;1319;52.346;13.096;2022-07-15T16:27:56;3.33;;;1.15;;
2618;SDS011;1319;52.346;13.096;2022-07-15T16:30:21;4.93;;;1.10;;
2618;SDS011;1319;52.346;13.096;2022-07-15T16:32:48;2.10;;;1.73;;
2618;SDS011;1319;52.346;13.096;2022-07-15T16:35:14;5.00;;;2.97;;
2618;SDS011;1319;52.346;13.096;2022-07-15T16:37:39;10.30;;;5.87;;
2618;SDS011;1319;52.346;13.096;2022-07-15T16:40:04;13.77;;;7.13;;
2618;SDS011;1319;52.346;13.096;2022-07-15T16:42:30;3.17;;;1.50;;
2618;SDS011;1319;52.346;13.096;2022-07-15T16:44:55;2.20;;;1.80;;
2618;SDS011;1319;52.346;13.096;2022-07-15T16:47:20;2.87;;;1.60;;
2618;SDS011;1319;52.346;13.096;2022-07-15T16:49:45;1.63;;;1.47;;
2618;SDS011;1319;52.346;13.096;2022-07-15T16:52:11;2.37;;;2.23;;
2618;SDS011;1319;52.346;13.096;2022-07-15T16:54:36;3.33;;;1.30;;
2618;SDS011;1319;52.346;13.096;2022-07-15T16:57:01;2.40;;;1.00;;
2618;SDS011;1319;52.346;13.096;2022-07-15T16:59:27;1.13;;;0.93;;
2618;SDS011;1319;52.346;13.096;2022-07-15T17:01:52;1.87;;;1.00;;
2618;SDS011;1319;52.346;13.096;2022-07-15T17:04:17;2.40;;;1.00;;
2618;SDS011;1319;52.346;13.096;2022-07-15T17:06:43;4.03;;;1.00;;
2618;SDS011;1319;52.346;13.096;2022-07-15T17:09:08;0.80;;;0.80;;